Time;durP1;ratioP1;P1;durP2;ratioP2;P2;SDS_P1;SDS_P2;PMS_P1;PMS_P2;Temp;Humidity;BMP_temperature;BMP_pressure;BME280_temperature;BME280_humidity;BME280_pressure;Samples;Min_cycle;Max_cycle;Signal;HPM_P1;HPM_P2
2023/06/01 00:02:00;;;;;;;18.30;10.93;;;;;;;;;;5073273;28;20500;-68
2023/06/01 00:04:27;;;;;;;16.50;10.63;;;;;;;;;;5073447;28;20449;-69
2023/06/01 00:06:55;;;;;;;17.10;10.97;;;;;;;;;;5072658;28;20443;-69
2023/06/01 00:09:22;;;;;;;13.00;11.00;;;;;;;;;;5073062;28;20447;-69
2023/06/01 00:11:49;;;;;;;13.97;10.77;;;;;;;;;;5073170;28;20960;-69
2023/06/01 00:14:18;;;;;;;19.60;12.13;;;;;;;;;;5073271;28;20528;-69
2023/06/01 00:16:46;;;;;;;18.70;10.70;;;;;;;;;;5073752;28;20478;-69
2023/06/01 00:19:13;;;;;;;18.00;10.70;;;;;;;;;;5073265;28;20469;-69
2023/06/01 00:21:41;;;;;;;17.43;10.10;;;;;;;;;;5073373;28;20448;-69
2023/06/01 00:24:08;;;;;;;19.90;10.87;;;;;;;;;;5072952;28;20519;-69
2023/06/01 00:26:36;;;;;;;12.90;10.37;;;;;;;;;;5073366;28;20473;-69
2023/06/01 00:29:03;;;;;;;19.77;12.10;;;;;;;;;;5073182;28;20521;-69
2023/06/01 00:31:31;;;;;;;20.77;11.00;;;;;;;;;;5072964;28;20442;-69
2023/06/01 00:33:59;;;;;;;20.50;11.43;;;;;;;;;;5072814;28;20439;-68
2023/06/01 00:36:26;;;;;;;16.07;11.13;;;;;;;;;;5073542;28;20519;-68
2023/06/01 00:38:53;;;;;;;23.63;14.60;;;;;;;;;;5072975;28;20503;-68
2023/06/01 00:41:20;;;;;;;24.20;12.80;;;;;;;;;;5072849;28;20447;-70
2023/06/01 00:43:47;;;;;;;21.20;13.90;;;;;;;;;;5072746;28;20463;-68
2023/06/01 00:46:15;;;;;;;19.23;13.80;;;;;;;;;;5072783;28;20817;-68
2023/06/01 00:48:43;;;;;;;19.17;13.10;;;;;;;;;;5072680;28;20476;-71
2023/06/01 00:51:12;;;;;;;19.23;13.20;;;;;;;;;;5073050;28;20450;-69
2023/06/01 00:53:39;;;;;;;21.37;13.53;;;;;;;;;;5072608;28;20445;-68
2023/06/01 00:56:07;;;;;;;17.33;13.30;;;;;;;;;;5072964;28;20476;-68
2023/06/01 00:58:34;;;;;;;19.40;14.20;;;;;;;;;;5073253;28;20790;-69
2023/06/01 01:01:02;;;;;;;20.17;13.00;;;;;;;;;;5073169;28;20540;-68
2023/06/01 01:03:31;;;;;;;19.33;12.97;;;;;;;;;;5072539;28;20498;-69
2023/06/01 01:06:11;;;;;;;18.10;12.70;;;;;;;;;;5072886;28;20441;-69
2023/06/01 01:08:43;;;;;;;18.33;13.27;;;;;;;;;;5073314;28;20424;-68
2023/06/01 01:11:14;;;;;;;20.77;12.67;;;;;;;;;;5073055;28;20804;-71
2023/06/01 01:13:44;;;;;;;22.27;13.30;;;;;;;;;;5073163;28;20435;-69
2023/06/01 01:16:15;;;;;;;15.90;12.63;;;;;;;;;;5072616;28;20488;-69
2023/06/01 01:18:45;;;;;;;19.10;11.53;;;;;;;;;;5075060;28;20440;-69
2023/06/01 01:21:28;;;;;;;18.30;11.67;;;;;;;;;;5076178;28;20432;-69
2023/06/01 01:24:07;;;;;;;21.57;12.37;;;;;;;;;;5076094;28;20917;-69
2023/06/01 01:26:43;;;;;;;14.40;11.93;;;;;;;;;;5076570;28;20785;-71
2023/06/01 01:29:13;;;;;;;19.80;13.70;;;;;;;;;;5076043;28;20425;-69
2023/06/01 01:31:41;;;;;;;18.97;11.30;;;;;;;;;;5076029;28;20437;-68
2023/06/01 01:34:09;;;;;;;14.07;10.67;;;;;;;;;;5075870;28;20927;-70
2023/06/01 01:36:37;;;;;;;16.40;11.20;;;;;;;;;;5076285;28;20479;-69
2023/06/01 01:39:05;;;;;;;17.13;11.17;;;;;;;;;;5076173;28;20440;-70
2023/06/01 01:41:32;;;;;;;17.87;11.00;;;;;;;;;;5075836;28;20486;-70
2023/06/01 01:43:59;;;;;;;17.73;12.57;;;;;;;;;;5076045;28;20802;-70
2023/06/01 01:46:29;;;;;;;18.30;12.60;;;;;;;;;;5076379;28;20452;-70
2023/06/01 01:49:00;;;;;;;17.83;12.40;;;;;;;;;;5076185;28;20230;-71
2023/06/01 01:51:29;;;;;;;14.40;10.17;;;;;;;;;;5076580;28;20424;-70
2023/06/01 01:53:57;;;;;;;12.97;9.97;;;;;;;;;;5076198;28;20441;-71
2023/06/01 01:56:25;;;;;;;20.27;12.00;;;;;;;;;;5075860;28;20479;-70
2023/06/01 01:58:53;;;;;;;14.20;10.27;;;;;;;;;;5075880;28;20471;-70
2023/06/01 02:01:20;;;;;;;13.90;9.70;;;;;;;;;;5075436;28;20447;-70
2023/06/01 02:03:58;;;;;;;12.73;10.97;;;;;;;;;;5075806;28;20448;-70
2023/06/01 02:06:25;;;;;;;15.50;9.53;;;;;;;;;;5075521;28;20460;-70
2023/06/01 02:08:53;;;;;;;16.23;9.03;;;;;;;;;;5075770;28;20588;-70
2023/06/01 02:11:20;;;;;;;15.37;9.57;;;;;;;;;;5075561;28;20468;-70
2023/06/01 02:13:47;;;;;;;15.37;9.87;;;;;;;;;;5075590;28;20539;-70
2023/06/01 02:16:15;;;;;;;12.10;8.80;;;;;;;;;;5075036;28;20492;-70
2023/06/01 02:18:45;;;;;;;14.53;10.57;;;;;;;;;;5075500;28;20476;-70
2023/06/01 02:21:14;;;;;;;14.67;11.00;;;;;;;;;;5075280;28;20893;-70
2023/06/01 02:23:42;;;;;;;14.30;10.23;;;;;;;;;;5075100;28;20473;-70
2023/06/01 02:26:10;;;;;;;14.53;10.23;;;;;;;;;;5075273;28;20444;-70
2023/06/01 02:28:38;;;;;;;13.90;9.97;;;;;;;;;;5075276;28;20433;-70
2023/06/01 02:31:06;;;;;;;12.77;8.93;;;;;;;;;;5074805;28;20441;-70
2023/06/01 02:33:33;;;;;;;14.33;9.67;;;;;;;;;;5074857;28;20452;-70
2023/06/01 02:36:00;;;;;;;13.37;10.00;;;;;;;;;;5074710;28;21049;-70
2023/06/01 02:38:29;;;;;;;15.47;9.70;;;;;;;;;;5074882;28;20923;-70
2023/06/01 02:40:56;;;;;;;13.53;9.50;;;;;;;;;;5075213;28;20437;-70
2023/06/01 02:43:23;;;;;;;21.10;10.23;;;;;;;;;;5075044;28;20448;-71
2023/06/01 02:45:50;;;;;;;18.23;10.37;;;;;;;;;;5074857;28;20548;-70
2023/06/01 02:48:17;;;;;;;15.00;8.03;;;;;;;;;;5074971;28;20863;-71
2023/06/01 02:50:45;;;;;;;16.73;10.37;;;;;;;;;;5074800;28;20805;-70
2023/06/01 02:53:12;;;;;;;13.60;8.80;;;;;;;;;;5074558;28;20448;-70
2023/06/01 02:55:40;;;;;;;14.13;9.10;;;;;;;;;;5074364;28;20473;-70
2023/06/01 02:58:14;;;;;;;12.83;8.60;;;;;;;;;;5074734;28;20445;-70
2023/06/01 03:00:41;;;;;;;15.60;9.63;;;;;;;;;;5074422;28;20487;-69
2023/06/01 03:03:08;;;;;;;13.43;9.40;;;;;;;;;;5074611;28;20441;-69
2023/06/01 03:05:36;;;;;;;17.03;9.80;;;;;;;;;;5074185;28;20452;-70
2023/06/01 03:08:03;;;;;;;13.37;9.87;;;;;;;;;;5074527;28;20445;-69
2023/06/01 03:10:30;;;;;;;21.03;8.77;;;;;;;;;;5074081;28;20445;-70
2023/06/01 03:12:59;;;;;;;17.30;10.33;;;;;;;;;;5074126;28;20960;-70
2023/06/01 03:15:27;;;;;;;14.83;10.40;;;;;;;;;;5074085;28;20877;-70
2023/06/01 03:17:54;;;;;;;12.73;9.70;;;;;;;;;;5074052;28;20441;-70
2023/06/01 03:20:22;;;;;;;13.77;9.83;;;;;;;;;;5073935;28;20448;-70
2023/06/01 03:22:49;;;;;;;16.67;10.07;;;;;;;;;;5074254;28;20494;-70
2023/06/01 03:25:17;;;;;;;19.13;11.00;;;;;;;;;;5074588;28;20448;-70
2023/06/01 03:27:45;;;;;;;16.03;10.03;;;;;;;;;;5073852;28;20241;-70
2023/06/01 03:30:14;;;;;;;17.47;10.57;;;;;;;;;;5074079;28;20764;-70
2023/06/01 03:32:42;;;;;;;13.17;9.80;;;;;;;;;;5073751;28;20447;-70
2023/06/01 03:35:10;;;;;;;14.70;10.60;;;;;;;;;;5074091;28;20448;-71
2023/06/01 03:37:37;;;;;;;15.10;9.98;;;;;;;;;;5074103;28;20884;-70
2023/06/01 03:40:10;;;;;;;15.67;10.50;;;;;;;;;;5073465;28;20191;-70
2023/06/01 03:42:38;;;;;;;12.87;9.30;;;;;;;;;;5073707;28;20425;-70
2023/06/01 03:45:06;;;;;;;19.87;9.87;;;;;;;;;;5073700;28;20535;-70
2023/06/01 03:47:34;;;;;;;13.83;9.63;;;;;;;;;;5072877;28;20809;-70
2023/06/01 03:50:01;;;;;;;16.50;9.33;;;;;;;;;;5073774;28;20440;-69
2023/06/01 03:52:29;;;;;;;19.53;9.80;;;;;;;;;;5073321;28;20535;-70
2023/06/01 03:54:56;;;;;;;12.33;9.20;;;;;;;;;;5073639;28;20444;-70
2023/06/01 03:57:23;;;;;;;14.23;9.40;;;;;;;;;;5073460;28;20472;-70
2023/06/01 03:59:51;;;;;;;16.25;10.60;;;;;;;;;;5073609;28;20451;-70
2023/06/01 04:02:18;;;;;;;17.40;10.60;;;;;;;;;;5073551;28;20244;-69
2023/06/01 04:04:47;;;;;;;17.23;9.73;;;;;;;;;;5073177;28;20228;-70
2023/06/01 04:07:18;;;;;;;14.93;9.95;;;;;;;;;;5073424;28;20502;-70
2023/06/01 04:09:46;;;;;;;11.60;9.77;;;;;;;;;;5073945;28;20186;-70
2023/06/01 04:12:13;;;;;;;16.60;10.80;;;;;;;;;;5073352;28;20602;-72
2023/06/01 04:14:40;;;;;;;16.00;10.30;;;;;;;;;;5073628;28;20436;-71
2023/06/01 04:17:07;;;;;;;18.90;9.90;;;;;;;;;;5073528;28;20487;-72
2023/06/01 04:19:35;;;;;;;11.87;8.87;;;;;;;;;;5073224;28;20464;-72
2023/06/01 04:22:04;;;;;;;22.00;10.93;;;;;;;;;;5073012;28;20459;-72
2023/06/01 04:24:31;;;;;;;17.17;10.77;;;;;;;;;;5073114;28;20455;-72
2023/06/01 04:26:59;;;;;;;13.20;9.37;;;;;;;;;;5072870;28;20486;-71
2023/06/01 04:29:26;;;;;;;15.33;10.10;;;;;;;;;;5073321;28;20447;-72
2023/06/01 04:31:54;;;;;;;12.80;9.53;;;;;;;;;;5073153;28;20830;-71
2023/06/01 04:34:23;;;;;;;12.47;10.17;;;;;;;;;;5072981;28;20445;-71
2023/06/01 04:36:51;;;;;;;18.67;10.73;;;;;;;;;;5072796;28;20575;-71
2023/06/01 04:39:19;;;;;;;16.80;10.00;;;;;;;;;;5072665;28;20445;-71
2023/06/01 04:41:48;;;;;;;12.30;9.47;;;;;;;;;;5072810;28;20448;-71
2023/06/01 04:44:16;;;;;;;13.50;10.40;;;;;;;;;;5072847;28;20513;-71
2023/06/01 04:46:44;;;;;;;17.67;11.00;;;;;;;;;;5072692;28;20840;-72
2023/06/01 04:49:11;;;;;;;12.40;10.37;;;;;;;;;;5072937;28;20448;-71
2023/06/01 04:51:40;;;;;;;16.77;10.53;;;;;;;;;;5073042;28;20441;-72
2023/06/01 04:54:07;;;;;;;19.80;9.40;;;;;;;;;;5077055;28;20450;-70
2023/06/01 04:56:35;;;;;;;17.30;8.53;;;;;;;;;;5076817;28;20490;-71
2023/06/01 04:59:05;;;;;;;16.93;9.97;;;;;;;;;;5077069;28;20436;-71
2023/06/01 05:01:32;;;;;;;12.57;9.30;;;;;;;;;;5076722;28;21000;-72
2023/06/01 05:04:00;;;;;;;16.67;9.10;;;;;;;;;;5077205;28;20531;-70
2023/06/01 05:06:27;;;;;;;21.27;9.87;;;;;;;;;;5077103;28;20499;-70
2023/06/01 05:08:55;;;;;;;16.20;10.23;;;;;;;;;;5076394;28;20984;-70
2023/06/01 05:11:22;;;;;;;16.97;10.60;;;;;;;;;;5076463;28;20953;-69
2023/06/01 05:13:52;;;;;;;13.50;9.40;;;;;;;;;;5076288;28;20440;-70
2023/06/01 05:16:19;;;;;;;15.10;9.50;;;;;;;;;;5076022;28;20481;-70
2023/06/01 05:18:46;;;;;;;14.80;10.00;;;;;;;;;;5076366;28;20808;-71
2023/06/01 05:21:13;;;;;;;17.43;9.60;;;;;;;;;;5076861;28;20741;-70
2023/06/01 05:23:41;;;;;;;21.00;9.70;;;;;;;;;;5076486;28;20451;-70
2023/06/01 05:26:08;;;;;;;14.83;9.53;;;;;;;;;;5076486;28;20448;-70
2023/06/01 05:28:36;;;;;;;17.97;9.47;;;;;;;;;;5076410;28;20463;-70
2023/06/01 05:31:05;;;;;;;19.63;9.77;;;;;;;;;;5076370;28;20794;-71
2023/06/01 05:33:32;;;;;;;17.60;9.10;;;;;;;;;;5076430;28;20436;-70
2023/06/01 05:35:59;;;;;;;13.53;9.57;;;;;;;;;;5076183;28;20445;-71
2023/06/01 05:38:27;;;;;;;36.03;11.83;;;;;;;;;;5075816;28;20479;-72
2023/06/01 05:40:54;;;;;;;23.97;10.17;;;;;;;;;;5075918;28;20974;-70
2023/06/01 05:43:21;;;;;;;23.00;9.87;;;;;;;;;;5075742;28;20945;-70
2023/06/01 05:45:49;;;;;;;20.93;9.43;;;;;;;;;;5076175;28;20458;-70
2023/06/01 05:48:18;;;;;;;16.30;9.27;;;;;;;;;;5075947;28;20445;-70
2023/06/01 05:50:45;;;;;;;16.00;8.60;;;;;;;;;;5076449;28;20816;-70
2023/06/01 05:53:12;;;;;;;11.70;8.97;;;;;;;;;;5076179;28;20531;-70
2023/06/01 05:55:40;;;;;;;13.93;9.10;;;;;;;;;;5075648;28;20476;-70
2023/06/01 05:58:07;;;;;;;17.73;9.30;;;;;;;;;;5075721;28;20484;-70
2023/06/01 06:00:35;;;;;;;17.53;9.33;;;;;;;;;;5075796;28;20449;-70
2023/06/01 06:03:04;;;;;;;15.33;9.10;;;;;;;;;;5075358;28;20507;-70
2023/06/01 06:05:32;;;;;;;16.23;9.67;;;;;;;;;;5074950;28;20463;-69
2023/06/01 06:08:00;;;;;;;14.27;10.23;;;;;;;;;;5076009;28;20487;-70
2023/06/01 06:10:28;;;;;;;14.23;9.70;;;;;;;;;;5075547;28;20939;-70
2023/06/01 06:12:55;;;;;;;18.03;10.30;;;;;;;;;;5075754;28;20461;-70
2023/06/01 06:15:22;;;;;;;17.37;10.57;;;;;;;;;;5075552;28;20450;-70
2023/06/01 06:17:49;;;;;;;22.40;11.60;;;;;;;;;;5075687;28;20465;-69
2023/06/01 06:20:21;;;;;;;19.37;12.17;;;;;;;;;;5075412;28;20441;-70
2023/06/01 06:22:51;;;;;;;16.87;10.90;;;;;;;;;;5075678;28;20507;-70
2023/06/01 06:25:19;;;;;;;13.80;10.30;;;;;;;;;;5075455;28;20441;-70
2023/06/01 06:27:46;;;;;;;15.37;11.57;;;;;;;;;;5075315;28;20440;-70
2023/06/01 06:30:14;;;;;;;15.33;11.90;;;;;;;;;;5075288;28;20439;-70
2023/06/01 06:32:41;;;;;;;18.90;12.20;;;;;;;;;;5075218;28;20533;-70
2023/06/01 06:35:12;;;;;;;16.33;11.23;;;;;;;;;;5074853;28;20479;-70
2023/06/01 06:37:39;;;;;;;22.03;14.90;;;;;;;;;;5075156;28;20551;-70
2023/06/01 06:40:09;;;;;;;22.00;13.47;;;;;;;;;;5074730;28;20445;-70
2023/06/01 06:42:36;;;;;;;23.83;12.60;;;;;;;;;;5075009;28;20445;-70
2023/06/01 06:45:04;;;;;;;27.57;12.10;;;;;;;;;;5074792;28;20441;-70
2023/06/01 06:47:32;;;;;;;21.87;11.63;;;;;;;;;;5075119;28;20446;-70
2023/06/01 06:49:59;;;;;;;24.10;12.47;;;;;;;;;;5074867;28;20442;-70
2023/06/01 06:52:26;;;;;;;18.20;11.70;;;;;;;;;;5074852;28;20466;-70
2023/06/01 06:54:53;;;;;;;23.00;12.63;;;;;;;;;;5074719;28;20438;-70
2023/06/01 06:57:22;;;;;;;23.33;12.37;;;;;;;;;;5074627;28;20473;-70
2023/06/01 06:59:49;;;;;;;16.90;13.67;;;;;;;;;;5074229;28;20442;-70
2023/06/01 07:02:16;;;;;;;17.43;10.93;;;;;;;;;;5074508;28;20513;-70
2023/06/01 07:04:43;;;;;;;18.10;11.67;;;;;;;;;;5074630;28;20544;-70
2023/06/01 07:07:11;;;;;;;16.63;12.73;;;;;;;;;;5074574;28;20448;-70
2023/06/01 07:09:38;;;;;;;17.83;12.10;;;;;;;;;;5074441;28;20525;-70
2023/06/01 07:12:05;;;;;;;20.30;11.90;;;;;;;;;;5074155;28;20446;-70
2023/06/01 07:14:34;;;;;;;20.57;11.73;;;;;;;;;;5074398;28;20443;-70
2023/06/01 07:17:01;;;;;;;19.43;11.43;;;;;;;;;;5073976;28;20492;-70
2023/06/01 07:19:32;;;;;;;21.23;10.70;;;;;;;;;;5074243;28;20434;-70
2023/06/01 07:22:00;;;;;;;18.63;10.17;;;;;;;;;;5074386;28;20827;-70
2023/06/01 07:24:28;;;;;;;22.63;10.70;;;;;;;;;;5074349;28;20503;-70
2023/06/01 07:26:55;;;;;;;22.73;10.27;;;;;;;;;;5074464;28;20456;-70
2023/06/01 07:29:22;;;;;;;17.63;10.70;;;;;;;;;;5074036;28;20474;-70
2023/06/01 07:31:53;;;;;;;22.17;11.37;;;;;;;;;;5073757;28;20631;-70
2023/06/01 07:34:20;;;;;;;21.80;11.50;;;;;;;;;;5074107;28;20451;-70
2023/06/01 07:36:48;;;;;;;14.70;10.57;;;;;;;;;;5073552;28;20488;-70
2023/06/01 07:39:16;;;;;;;21.13;12.17;;;;;;;;;;5073524;28;20453;-70
2023/06/01 07:41:43;;;;;;;25.70;11.90;;;;;;;;;;5073547;28;20441;-70
2023/06/01 07:44:10;;;;;;;18.37;9.80;;;;;;;;;;5073405;28;20449;-70
2023/06/01 07:46:37;;;;;;;15.57;10.00;;;;;;;;;;5073813;28;20459;-70
2023/06/01 07:49:07;;;;;;;16.10;9.90;;;;;;;;;;5073325;28;20495;-70
2023/06/01 07:51:36;;;;;;;29.63;11.30;;;;;;;;;;5073822;28;20437;-70
2023/06/01 07:54:03;;;;;;;13.07;9.63;;;;;;;;;;5073317;28;20445;-70
2023/06/01 07:56:30;;;;;;;16.43;9.97;;;;;;;;;;5073364;28;21024;-70
2023/06/01 07:58:57;;;;;;;16.73;11.63;;;;;;;;;;5073484;28;20843;-70
2023/06/01 08:01:24;;;;;;;13.90;9.90;;;;;;;;;;5073496;28;20438;-70
2023/06/01 08:03:52;;;;;;;20.07;10.13;;;;;;;;;;5073871;28;20527;-70
2023/06/01 08:06:22;;;;;;;18.67;8.93;;;;;;;;;;5073216;28;20453;-70
2023/06/01 08:08:49;;;;;;;18.07;10.00;;;;;;;;;;5073524;28;20480;-70
2023/06/01 08:11:17;;;;;;;15.50;9.40;;;;;;;;;;5073029;28;20442;-70
2023/06/01 08:13:45;;;;;;;17.00;9.27;;;;;;;;;;5073405;28;20443;-70
2023/06/01 08:16:13;;;;;;;12.27;8.73;;;;;;;;;;5072949;28;20573;-70
2023/06/01 08:18:41;;;;;;;19.53;10.40;;;;;;;;;;5073029;28;20479;-70
2023/06/01 08:21:09;;;;;;;18.47;10.07;;;;;;;;;;5073256;28;20443;-70
2023/06/01 08:23:38;;;;;;;18.80;10.03;;;;;;;;;;5073377;28;20455;-70
2023/06/01 08:26:05;;;;;;;12.83;9.60;;;;;;;;;;5072987;28;20450;-70
2023/06/01 08:28:33;;;;;;;13.37;9.30;;;;;;;;;;5073163;28;20438;-69
2023/06/01 08:31:00;;;;;;;30.47;12.13;;;;;;;;;;5073196;28;20508;-70
2023/06/01 08:33:27;;;;;;;15.70;10.07;;;;;;;;;;5072822;28;20438;-70
2023/06/01 08:35:56;;;;;;;18.40;10.40;;;;;;;;;;5072653;28;20444;-70
2023/06/01 08:38:23;;;;;;;16.90;10.80;;;;;;;;;;5072814;28;20474;-70
2023/06/01 08:40:51;;;;;;;14.37;9.53;;;;;;;;;;5072755;28;20450;-71
2023/06/01 08:43:20;;;;;;;14.50;9.30;;;;;;;;;;5072798;28;20482;-70
2023/06/01 08:45:48;;;;;;;15.17;8.53;;;;;;;;;;5072602;28;20456;-70
2023/06/01 08:48:16;;;;;;;12.80;8.67;;;;;;;;;;5072820;28;20503;-70
2023/06/01 08:50:44;;;;;;;17.77;8.93;;;;;;;;;;5072730;28;20502;-70
2023/06/01 08:53:12;;;;;;;13.43;9.10;;;;;;;;;;5073108;28;20442;-70
2023/06/01 08:55:39;;;;;;;10.60;8.50;;;;;;;;;;5073437;28;20455;-70
2023/06/01 08:58:08;;;;;;;19.30;8.80;;;;;;;;;;5073059;28;20473;-70
2023/06/01 09:00:35;;;;;;;14.87;8.70;;;;;;;;;;5073463;28;20534;-70
2023/06/01 09:03:02;;;;;;;12.30;8.13;;;;;;;;;;5073184;28;20445;-70
2023/06/01 09:05:30;;;;;;;14.97;8.30;;;;;;;;;;5072792;28;20445;-70
2023/06/01 09:07:57;;;;;;;8.70;7.33;;;;;;;;;;5072903;28;20450;-70
2023/06/01 09:10:26;;;;;;;15.10;7.83;;;;;;;;;;5072815;28;20440;-70
2023/06/01 09:12:53;;;;;;;20.50;8.50;;;;;;;;;;5072508;28;20949;-70
2023/06/01 09:15:25;;;;;;;10.20;8.40;;;;;;;;;;5072405;28;20447;-70
2023/06/01 09:17:53;;;;;;;22.53;9.40;;;;;;;;;;5072914;28;20577;-70
2023/06/01 09:20:24;;;;;;;18.80;8.87;;;;;;;;;;5072962;28;20792;-71
2023/06/01 09:22:51;;;;;;;18.27;9.20;;;;;;;;;;5072422;28;20956;-70
2023/06/01 09:25:26;;;;;;;16.60;10.17;;;;;;;;;;5072935;28;20442;-70
2023/06/01 09:27:54;;;;;;;16.30;9.57;;;;;;;;;;5072828;28;20463;-70
2023/06/01 09:30:24;;;;;;;15.17;9.30;;;;;;;;;;5072234;28;20437;-70
2023/06/01 09:32:53;;;;;;;18.77;10.07;;;;;;;;;;5072609;28;20439;-71
2023/06/01 09:35:35;;;;;;;12.40;8.53;;;;;;;;;;5072487;28;20442;-71
2023/06/01 09:38:05;;;;;;;15.70;9.13;;;;;;;;;;5072261;28;20470;-71
2023/06/01 09:40:33;;;;;;;19.30;9.13;;;;;;;;;;5075499;28;20912;-70
2023/06/01 09:43:02;;;;;;;11.20;8.77;;;;;;;;;;5076161;28;20442;-70
2023/06/01 09:45:32;;;;;;;14.67;9.10;;;;;;;;;;5075861;28;20944;-70
2023/06/01 09:48:18;;;;;;;11.50;9.10;;;;;;;;;;5076057;28;20446;-70
2023/06/01 09:50:45;;;;;;;13.60;9.60;;;;;;;;;;5075707;28;20489;-70
2023/06/01 09:53:13;;;;;;;14.93;9.17;;;;;;;;;;5076013;28;20802;-70
2023/06/01 09:55:57;;;;;;;10.77;7.80;;;;;;;;;;5075494;28;20444;-70
2023/06/01 09:58:25;;;;;;;11.37;7.90;;;;;;;;;;5075585;28;20470;-70
2023/06/01 10:00:54;;;;;;;11.53;8.63;;;;;;;;;;5075832;28;20539;-70
2023/06/01 10:03:22;;;;;;;13.17;9.53;;;;;;;;;;5075995;28;20498;-70
2023/06/01 10:05:49;;;;;;;10.93;8.70;;;;;;;;;;5075315;28;20440;-71
2023/06/01 10:08:17;;;;;;;12.13;9.00;;;;;;;;;;5075753;28;20458;-70
2023/06/01 10:10:44;;;;;;;13.27;8.60;;;;;;;;;;5075649;28;20474;-71
2023/06/01 10:13:12;;;;;;;14.60;9.40;;;;;;;;;;5075633;28;20528;-70
2023/06/01 10:15:39;;;;;;;16.20;8.50;;;;;;;;;;5075456;28;20574;-70
2023/06/01 10:18:08;;;;;;;14.27;8.53;;;;;;;;;;5075441;28;20463;-70
2023/06/01 10:20:36;;;;;;;10.40;7.87;;;;;;;;;;5075173;28;20444;-70
2023/06/01 10:23:03;;;;;;;11.73;8.50;;;;;;;;;;5075364;28;20444;-70
2023/06/01 10:25:31;;;;;;;10.40;7.90;;;;;;;;;;5075140;28;20452;-71
2023/06/01 10:27:59;;;;;;;11.10;8.37;;;;;;;;;;5075062;28;20443;-70
2023/06/01 10:30:27;;;;;;;11.27;9.37;;;;;;;;;;5075916;28;20445;-70
2023/06/01 10:32:54;;;;;;;9.60;7.80;;;;;;;;;;5075367;28;20449;-70
2023/06/01 10:35:40;;;;;;;12.20;8.83;;;;;;;;;;5074918;28;20450;-70
2023/06/01 10:38:27;;;;;;;11.30;8.23;;;;;;;;;;5075058;28;20474;-70
2023/06/01 10:40:54;;;;;;;13.10;9.43;;;;;;;;;;5074881;28;20442;-70
2023/06/01 10:43:40;;;;;;;12.93;9.03;;;;;;;;;;5075010;28;20442;-70
2023/06/01 10:46:23;;;;;;;11.33;8.30;;;;;;;;;;5074487;28;20455;-70
2023/06/01 10:48:53;;;;;;;11.73;7.73;;;;;;;;;;5074562;28;20441;-70
2023/06/01 10:51:21;;;;;;;12.77;9.80;;;;;;;;;;5074584;28;20451;-71
2023/06/01 10:53:50;;;;;;;10.53;8.43;;;;;;;;;;5074852;28;20811;-70
2023/06/01 10:56:21;;;;;;;14.50;8.90;;;;;;;;;;5075138;28;20442;-70
2023/06/01 10:58:49;;;;;;;10.00;7.93;;;;;;;;;;5074576;28;20537;-71
2023/06/01 11:01:21;;;;;;;9.97;8.77;;;;;;;;;;5075023;28;20454;-70
2023/06/01 11:03:50;;;;;;;10.90;8.20;;;;;;;;;;5074697;28;20431;-70
2023/06/01 11:06:27;;;;;;;11.67;8.10;;;;;;;;;;5074212;28;20606;-70
2023/06/01 11:08:57;;;;;;;8.77;7.87;;;;;;;;;;5074448;28;20443;-70
2023/06/01 11:11:25;;;;;;;15.97;6.80;;;;;;;;;;5074634;28;20438;-71
2023/06/01 11:14:09;;;;;;;10.23;6.97;;;;;;;;;;5074356;28;20847;-70
2023/06/01 11:16:36;;;;;;;9.60;6.90;;;;;;;;;;5074372;28;20601;-71
2023/06/01 11:19:04;;;;;;;7.47;6.33;;;;;;;;;;5073911;28;20475;-70
2023/06/01 11:21:35;;;;;;;8.70;7.53;;;;;;;;;;5074047;28;20444;-74
2023/06/01 11:24:06;;;;;;;11.23;8.83;;;;;;;;;;5074549;28;20459;-70
2023/06/01 11:26:33;;;;;;;10.60;7.70;;;;;;;;;;5074665;28;20435;-70
2023/06/01 11:29:05;;;;;;;10.87;7.87;;;;;;;;;;5074074;28;20450;-70
2023/06/01 11:31:36;;;;;;;8.13;7.20;;;;;;;;;;5074081;28;20449;-71
2023/06/01 11:34:03;;;;;;;13.13;9.27;;;;;;;;;;5073776;28;20419;-70
2023/06/01 11:36:30;;;;;;;18.50;8.60;;;;;;;;;;5074102;28;20447;-70
2023/06/01 11:38:58;;;;;;;9.03;8.03;;;;;;;;;;5073733;28;20829;-71
2023/06/01 11:41:26;;;;;;;12.47;8.20;;;;;;;;;;5074091;28;20446;-69
2023/06/01 11:43:56;;;;;;;11.80;8.60;;;;;;;;;;5073632;28;20437;-71
2023/06/01 11:46:24;;;;;;;12.23;9.33;;;;;;;;;;5074167;28;20511;-69
2023/06/01 11:49:01;;;;;;;9.83;8.73;;;;;;;;;;5073527;28;20442;-69
2023/06/01 11:51:29;;;;;;;11.33;9.40;;;;;;;;;;5073170;28;20456;-69
2023/06/01 11:53:56;;;;;;;12.53;9.57;;;;;;;;;;5072407;28;20459;-68
2023/06/01 11:56:30;;;;;;;9.47;8.53;;;;;;;;;;5073126;28;20451;-69
2023/06/01 11:59:01;;;;;;;13.53;9.67;;;;;;;;;;5073392;28;20472;-69
2023/06/01 12:01:28;;;;;;;12.63;10.17;;;;;;;;;;5072321;28;20958;-69
2023/06/01 12:03:57;;;;;;;10.73;9.70;;;;;;;;;;5072930;28;20447;-69
2023/06/01 12:06:26;;;;;;;12.23;9.57;;;;;;;;;;5072994;28;20451;-70
2023/06/01 12:08:54;;;;;;;12.57;8.87;;;;;;;;;;5072938;28;20561;-69
2023/06/01 12:11:22;;;;;;;9.60;8.40;;;;;;;;;;5073277;28;20450;-69
2023/06/01 12:13:51;;;;;;;10.37;8.00;;;;;;;;;;5073110;28;20490;-69
2023/06/01 12:16:18;;;;;;;10.57;8.40;;;;;;;;;;5073103;28;20869;-69
2023/06/01 12:18:45;;;;;;;10.43;7.80;;;;;;;;;;5073032;28;20486;-69
2023/06/01 12:21:13;;;;;;;11.90;8.20;;;;;;;;;;5073064;28;20450;-69
2023/06/01 12:23:41;;;;;;;11.57;8.03;;;;;;;;;;5072543;28;20526;-69
2023/06/01 12:26:08;;;;;;;10.90;6.73;;;;;;;;;;5072862;28;20444;-69
2023/06/01 12:28:49;;;;;;;9.43;6.80;;;;;;;;;;5073236;28;20447;-70
2023/06/01 12:31:17;;;;;;;9.57;7.27;;;;;;;;;;5073353;28;20447;-69
2023/06/01 12:33:45;;;;;;;11.80;7.40;;;;;;;;;;5072583;28;20448;-71
2023/06/01 12:36:20;;;;;;;9.40;6.70;;;;;;;;;;5072523;28;20439;-69
2023/06/01 12:38:51;;;;;;;6.80;6.20;;;;;;;;;;5072281;28;20480;-70
2023/06/01 12:41:18;;;;;;;8.93;6.63;;;;;;;;;;5072779;28;20779;-69
2023/06/01 12:43:46;;;;;;;7.57;6.13;;;;;;;;;;5072597;28;20961;-70
2023/06/01 12:46:20;;;;;;;8.20;7.20;;;;;;;;;;5072670;28;20453;-70
2023/06/01 12:48:47;;;;;;;9.77;6.23;;;;;;;;;;5072981;28;20529;-69
2023/06/01 12:51:14;;;;;;;7.90;6.83;;;;;;;;;;5072820;28;20480;-69
2023/06/01 12:53:43;;;;;;;8.13;7.37;;;;;;;;;;5072565;28;20445;-69
2023/06/01 12:56:11;;;;;;;11.10;7.40;;;;;;;;;;5072786;28;20505;-69
2023/06/01 12:58:38;;;;;;;7.20;6.30;;;;;;;;;;5072516;28;20839;-69
2023/06/01 13:01:06;;;;;;;6.17;5.50;;;;;;;;;;5072726;28;20444;-69
2023/06/01 13:03:34;;;;;;;7.80;6.20;;;;;;;;;;5072617;28;20442;-69
2023/06/01 13:06:01;;;;;;;8.23;5.77;;;;;;;;;;5072172;28;20446;-69
2023/06/01 13:08:28;;;;;;;8.60;6.00;;;;;;;;;;5072691;28;20930;-69
2023/06/01 13:10:56;;;;;;;8.80;5.50;;;;;;;;;;5072301;28;20939;-70
2023/06/01 13:13:23;;;;;;;7.03;5.27;;;;;;;;;;5073773;28;20446;-69
2023/06/01 13:15:50;;;;;;;5.37;4.70;;;;;;;;;;5076282;28;20827;-69
2023/06/01 13:18:18;;;;;;;5.87;5.10;;;;;;;;;;5076603;28;20534;-70
2023/06/01 13:20:46;;;;;;;6.47;5.40;;;;;;;;;;5076557;28;20538;-69
2023/06/01 13:23:13;;;;;;;5.50;5.00;;;;;;;;;;5076267;28;20436;-69
2023/06/01 13:25:41;;;;;;;12.30;6.20;;;;;;;;;;5075766;28;20527;-69
2023/06/01 13:28:08;;;;;;;5.80;5.30;;;;;;;;;;5076333;28;20480;-69
2023/06/01 13:30:36;;;;;;;8.53;5.70;;;;;;;;;;5076030;28;20455;-69
2023/06/01 13:33:03;;;;;;;10.67;5.33;;;;;;;;;;5075895;28;20536;-69
2023/06/01 13:35:30;;;;;;;6.20;5.60;;;;;;;;;;5076082;28;20921;-69
2023/06/01 13:37:59;;;;;;;5.40;4.80;;;;;;;;;;5076444;28;20473;-69
2023/06/01 13:40:26;;;;;;;6.00;5.40;;;;;;;;;;5075965;28;20479;-69
2023/06/01 13:42:54;;;;;;;4.50;4.10;;;;;;;;;;5075870;28;20927;-69
2023/06/01 13:45:22;;;;;;;5.60;4.30;;;;;;;;;;5075922;28;20455;-70
2023/06/01 13:47:50;;;;;;;5.73;5.23;;;;;;;;;;5075893;28;20497;-69
2023/06/01 13:50:17;;;;;;;4.87;4.47;;;;;;;;;;5075782;28;20448;-69
2023/06/01 13:52:45;;;;;;;6.73;4.47;;;;;;;;;;5076050;28;20456;-69
2023/06/01 13:55:14;;;;;;;4.97;4.03;;;;;;;;;;5075430;28;20451;-68
2023/06/01 13:57:42;;;;;;;5.70;4.70;;;;;;;;;;5075805;28;20468;-68
2023/06/01 14:00:10;;;;;;;5.00;4.53;;;;;;;;;;5075619;28;20499;-68
2023/06/01 14:02:37;;;;;;;4.20;3.80;;;;;;;;;;5075404;28;20976;-68
2023/06/01 14:05:05;;;;;;;6.30;4.57;;;;;;;;;;5075058;28;20937;-69
2023/06/01 14:07:32;;;;;;;5.57;3.67;;;;;;;;;;5075422;28;20446;-67
2023/06/01 14:09:59;;;;;;;4.00;3.70;;;;;;;;;;5075735;28;20451;-67
2023/06/01 14:12:27;;;;;;;4.37;3.70;;;;;;;;;;5075007;28;20538;-68
2023/06/01 14:14:55;;;;;;;6.40;3.53;;;;;;;;;;5075384;28;20455;-67
2023/06/01 14:17:22;;;;;;;4.17;3.77;;;;;;;;;;5075387;28;20470;-67
2023/06/01 14:19:49;;;;;;;6.07;4.00;;;;;;;;;;5075303;28;20487;-68
2023/06/01 14:22:16;;;;;;;4.60;4.20;;;;;;;;;;5074950;28;20979;-67
2023/06/01 14:24:43;;;;;;;4.07;3.73;;;;;;;;;;5074311;28;20443;-68
2023/06/01 14:27:11;;;;;;;4.97;3.93;;;;;;;;;;5075078;28;20440;-68
2023/06/01 14:29:39;;;;;;;3.67;3.40;;;;;;;;;;5075074;28;20451;-70
2023/06/01 14:32:07;;;;;;;4.07;3.63;;;;;;;;;;5075178;28;20449;-68
2023/06/01 14:34:34;;;;;;;4.93;3.73;;;;;;;;;;5074730;28;20762;-68